Time;durP1;ratioP1;P1;durP2;ratioP2;P2;SDS_P1;SDS_P2;PMS_P1;PMS_P2;Temp;Humidity;BMP_temperature;BMP_pressure;BME280_temperature;BME280_humidity;BME280_pressure;Samples;Min_cycle;Max_cycle;Signal;HPM_P1;HPM_P2
2022/04/15 00:01:37;;;;;;;13.50;4.60;;;10.50;99.90;;;;;;4995205;28;20189;-59
2022/04/15 00:04:03;;;;;;;9.83;5.73;;;10.50;99.90;;;;;;4995212;28;20174;-60
2022/04/15 00:06:30;;;;;;;8.23;4.27;;;10.60;99.90;;;;;;4995193;28;20175;-62
2022/04/15 00:08:56;;;;;;;8.93;4.30;;;10.60;99.90;;;;;;4994947;28;20219;-60
2022/04/15 00:11:22;;;;;;;14.63;4.73;;;10.60;99.90;;;;;;4994954;28;20175;-60
2022/04/15 00:13:48;;;;;;;12.30;5.10;;;10.50;99.90;;;;;;4995060;28;20171;-59
2022/04/15 00:16:14;;;;;;;8.40;4.00;;;10.50;99.90;;;;;;4994920;28;20677;-60
2022/04/15 00:18:41;;;;;;;11.13;3.87;;;10.40;99.90;;;;;;4993594;28;20311;-60
2022/04/15 00:21:07;;;;;;;10.90;4.87;;;10.30;99.90;;;;;;4994859;28;20171;-60
2022/04/15 00:23:34;;;;;;;12.27;6.10;;;10.30;99.90;;;;;;4994784;28;20534;-60
2022/04/15 00:26:01;;;;;;;10.40;6.13;;;10.30;99.90;;;;;;4994510;28;20287;-60
2022/04/15 00:28:27;;;;;;;12.80;5.80;;;10.20;99.90;;;;;;4994740;28;20690;-60
2022/04/15 00:30:53;;;;;;;10.07;5.17;;;10.20;99.90;;;;;;4994693;28;20180;-60
2022/04/15 00:33:19;;;;;;;13.60;6.73;;;10.20;99.90;;;;;;4994715;28;20217;-60
2022/04/15 00:35:45;;;;;;;9.47;4.20;;;10.20;99.90;;;;;;4994566;28;20706;-60
2022/04/15 00:38:11;;;;;;;8.97;4.30;;;10.20;99.90;;;;;;4994417;28;20281;-60
2022/04/15 00:40:36;;;;;;;9.10;4.57;;;10.20;99.90;;;;;;4994535;28;20642;-60
2022/04/15 00:43:02;;;;;;;12.03;4.77;;;10.10;99.90;;;;;;4994594;28;20195;-60
2022/04/15 00:45:28;;;;;;;12.40;5.17;;;10.10;99.90;;;;;;4994535;28;20167;-60
2022/04/15 00:47:56;;;;;;;12.27;5.17;;;10.20;99.90;;;;;;4994386;28;20223;-60
2022/04/15 00:50:30;;;;;;;14.23;4.83;;;10.20;99.90;;;;;;4994475;28;20206;-60
2022/04/15 00:52:59;;;;;;;8.93;4.80;;;12.50;99.90;;;;;;4993700;28;20637;-60
2022/04/15 00:55:26;;;;;;;11.67;4.93;;;10.20;99.90;;;;;;4994361;28;20179;-60
2022/04/15 00:57:57;;;;;;;14.07;4.70;;;10.20;99.90;;;;;;4994239;28;20241;-60
2022/04/15 01:00:23;;;;;;;8.00;3.30;;;10.20;99.90;;;;;;4994177;28;20171;-60
2022/04/15 01:02:50;;;;;;;8.20;4.20;;;10.10;99.90;;;;;;4994188;28;20171;-60
2022/04/15 01:05:16;;;;;;;10.33;4.00;;;10.10;99.90;;;;;;4994036;28;20172;-60
2022/04/15 01:07:51;;;;;;;9.07;3.63;;;10.10;99.90;;;;;;4994719;28;20295;-60
2022/04/15 01:10:19;;;;;;;7.37;3.17;;;10.10;99.90;;;;;;4993988;28;20187;-60
2022/04/15 01:12:55;;;;;;;6.97;3.37;;;10.00;99.90;;;;;;4993913;28;20178;-60
2022/04/15 01:15:22;;;;;;;6.60;3.10;;;9.90;99.90;;;;;;4993871;28;20175;-60
2022/04/15 01:17:48;;;;;;;9.97;3.53;;;9.80;99.90;;;;;;4993803;28;20167;-60
2022/04/15 01:20:14;;;;;;;8.47;3.00;;;9.70;99.90;;;;;;4994089;28;20173;-60
2022/04/15 01:22:45;;;;;;;8.33;3.07;;;9.60;99.90;;;;;;4993722;28;20168;-60
2022/04/15 01:25:13;;;;;;;9.87;3.43;;;9.60;99.90;;;;;;4993806;28;20174;-59
2022/04/15 01:27:41;;;;;;;7.67;3.10;;;9.50;99.90;;;;;;4993660;28;20184;-60
2022/04/15 01:30:26;;;;;;;6.53;2.77;;;9.50;99.90;;;;;;4993539;28;20222;-59
2022/04/15 01:32:52;;;;;;;9.03;3.20;;;9.50;99.90;;;;;;4993841;28;20382;-60
2022/04/15 01:35:19;;;;;;;8.30;3.07;;;9.40;99.90;;;;;;4993657;28;20201;-60
2022/04/15 01:37:46;;;;;;;9.73;3.37;;;9.40;99.90;;;;;;4992011;28;20256;-60
2022/04/15 01:40:14;;;;;;;9.27;3.30;;;9.40;99.90;;;;;;4993484;28;20171;-60
2022/04/15 01:42:41;;;;;;;3.93;2.60;;;9.40;99.90;;;;;;4993380;28;20277;-60
2022/04/15 01:45:08;;;;;;;9.33;3.33;;;9.40;99.90;;;;;;4993306;28;20302;-59
2022/04/15 01:47:34;;;;;;;7.83;2.97;;;9.30;99.90;;;;;;4993457;28;20175;-60
2022/04/15 01:50:02;;;;;;;7.13;3.20;;;9.30;99.90;;;;;;4993209;28;20689;-60
2022/04/15 01:52:28;;;;;;;8.10;3.13;;;9.30;99.90;;;;;;4993265;28;20673;-61
2022/04/15 01:54:54;;;;;;;11.07;3.13;;;9.20;99.90;;;;;;4993090;28;20267;-61
2022/04/15 01:57:20;;;;;;;9.77;3.13;;;9.30;99.90;;;;;;4991915;28;20183;-61
2022/04/15 01:59:46;;;;;;;8.13;3.00;;;9.20;99.90;;;;;;4993197;28;20262;-61
2022/04/15 02:02:12;;;;;;;8.53;2.97;;;9.30;99.90;;;;;;4993055;28;20600;-61
2022/04/15 02:04:37;;;;;;;10.53;3.43;;;9.20;99.90;;;;;;4992141;28;20224;-61
2022/04/15 02:07:04;;;;;;;6.37;2.60;;;9.20;99.90;;;;;;4992807;28;20313;-61
2022/04/15 02:09:30;;;;;;;6.33;2.73;;;9.10;99.90;;;;;;4992821;28;20207;-61
2022/04/15 02:11:57;;;;;;;5.57;3.00;;;9.10;99.90;;;;;;4992690;28;20229;-61
2022/04/15 02:14:22;;;;;;;8.53;3.20;;;9.10;99.90;;;;;;4993064;28;20189;-60
2022/04/15 02:16:50;;;;;;;5.87;2.70;;;9.00;99.90;;;;;;4992532;28;20183;-60
2022/04/15 02:19:16;;;;;;;5.00;2.87;;;9.00;99.90;;;;;;4992727;28;20642;-61
2022/04/15 02:21:41;;;;;;;6.80;2.70;;;9.00;99.90;;;;;;4992693;28;20171;-60
2022/04/15 02:24:07;;;;;;;6.77;3.30;;;8.90;99.90;;;;;;4992565;28;20186;-61
2022/04/15 02:26:33;;;;;;;8.50;3.10;;;8.90;99.90;;;;;;4992514;28;20737;-61
2022/04/15 02:28:59;;;;;;;5.17;2.73;;;8.90;99.90;;;;;;4992429;28;20215;-59
2022/04/15 02:31:25;;;;;;;6.50;2.80;;;8.90;99.90;;;;;;4992447;28;20585;-59
2022/04/15 02:33:51;;;;;;;13.47;3.60;;;8.90;99.90;;;;;;4991188;28;20681;-60
2022/04/15 02:36:17;;;;;;;8.23;3.37;;;8.80;99.90;;;;;;4992349;28;20180;-59
2022/04/15 02:38:43;;;;;;;10.47;3.93;;;8.80;99.90;;;;;;4992152;28;20227;-60
2022/04/15 02:41:09;;;;;;;12.43;3.70;;;8.80;99.90;;;;;;4992270;28;20175;-60
2022/04/15 02:43:38;;;;;;;8.07;3.50;;;8.70;99.90;;;;;;4992184;28;20179;-59
2022/04/15 02:46:07;;;;;;;8.23;3.87;;;8.70;99.90;;;;;;4992164;28;20325;-60
2022/04/15 02:48:33;;;;;;;13.50;4.07;;;8.70;99.90;;;;;;4992175;28;20203;-59
2022/04/15 02:50:59;;;;;;;9.07;3.57;;;8.70;99.90;;;;;;4992152;28;20167;-60
2022/04/15 02:53:26;;;;;;;6.53;3.90;;;8.70;99.90;;;;;;4992169;28;20178;-60
2022/04/15 02:55:52;;;;;;;9.67;4.03;;;8.70;99.90;;;;;;4991956;28;20171;-60
2022/04/15 02:58:19;;;;;;;12.37;4.00;;;8.70;99.90;;;;;;4992057;28;20171;-60
2022/04/15 03:00:45;;;;;;;9.30;3.47;;;8.50;99.90;;;;;;4992038;28;20178;-60
2022/04/15 03:03:11;;;;;;;9.27;3.93;;;8.60;99.90;;;;;;4992138;28;20179;-60
2022/04/15 03:05:38;;;;;;;7.83;3.80;;;8.60;99.90;;;;;;4990663;28;20538;-60
2022/04/15 03:08:04;;;;;;;10.23;3.90;;;8.60;99.90;;;;;;4990435;28;20621;-60
2022/04/15 03:10:30;;;;;;;12.07;4.17;;;8.60;99.90;;;;;;4991837;28;20215;-61
2022/04/15 03:12:56;;;;;;;13.83;4.50;;;8.70;99.90;;;;;;4991902;28;20203;-60
2022/04/15 03:15:22;;;;;;;9.47;4.20;;;8.70;99.90;;;;;;4991731;28;20186;-60
2022/04/15 03:17:47;;;;;;;14.83;4.37;;;8.70;99.90;;;;;;4991556;28;20172;-60
2022/04/15 03:20:13;;;;;;;10.50;4.10;;;8.80;99.90;;;;;;4991621;28;20175;-60
2022/04/15 03:22:41;;;;;;;7.87;4.03;;;8.90;99.90;;;;;;4991713;28;20186;-61
2022/04/15 03:25:10;;;;;;;9.27;4.50;;;8.90;99.90;;;;;;4991670;28;20183;-60
2022/04/15 03:27:36;;;;;;;9.80;4.40;;;8.90;99.90;;;;;;4991732;28;20211;-60
2022/04/15 03:30:03;;;;;;;12.83;4.67;;;8.90;99.90;;;;;;4991539;28;20649;-60
2022/04/15 03:32:29;;;;;;;11.37;4.30;;;8.80;99.90;;;;;;4991480;28;20203;-60
2022/04/15 03:34:56;;;;;;;11.93;4.60;;;8.80;99.90;;;;;;4991586;28;20209;-60
2022/04/15 03:37:22;;;;;;;14.67;5.00;;;8.80;99.90;;;;;;4991285;28;20171;-60
2022/04/15 03:39:48;;;;;;;13.33;4.20;;;8.70;99.90;;;;;;4991552;28;20258;-61
2022/04/15 03:42:14;;;;;;;10.73;4.67;;;8.70;99.90;;;;;;4991591;28;20249;-60
2022/04/15 03:44:40;;;;;;;9.77;4.23;;;8.70;99.90;;;;;;4991407;28;20580;-60
2022/04/15 03:47:06;;;;;;;12.80;4.73;;;8.60;99.90;;;;;;4991483;28;20180;-60
2022/04/15 03:49:33;;;;;;;10.87;4.70;;;8.60;99.90;;;;;;4991336;28;20234;-60
2022/04/15 03:51:59;;;;;;;8.70;4.30;;;8.60;99.90;;;;;;4991317;28;20167;-60
2022/04/15 03:54:25;;;;;;;10.27;4.60;;;8.60;99.90;;;;;;4991527;28;20509;-60
2022/04/15 03:56:50;;;;;;;13.50;4.93;;;8.60;99.90;;;;;;4991161;28;20179;-60
2022/04/15 03:59:17;;;;;;;10.77;4.17;;;8.60;99.90;;;;;;4991409;28;20179;-60
2022/04/15 04:01:43;;;;;;;10.87;4.37;;;8.60;99.90;;;;;;4991282;28;20263;-60
2022/04/15 04:04:09;;;;;;;11.23;4.30;;;8.60;99.90;;;;;;4991289;28;20186;-60
2022/04/15 04:06:35;;;;;;;12.50;5.43;;;8.60;99.90;;;;;;4991302;28;20172;-61
2022/04/15 04:09:01;;;;;;;12.57;5.00;;;8.70;99.90;;;;;;4991246;28;20203;-60
2022/04/15 04:11:27;;;;;;;12.87;4.57;;;8.60;99.90;;;;;;4990060;28;20271;-60
2022/04/15 04:13:53;;;;;;;12.77;5.00;;;8.60;99.90;;;;;;4991220;28;20258;-61
2022/04/15 04:16:19;;;;;;;17.30;7.30;;;8.60;99.90;;;;;;4991225;28;20269;-60
2022/04/15 04:18:46;;;;;;;16.17;7.53;;;8.60;99.90;;;;;;4991229;28;20179;-60
2022/04/15 04:21:13;;;;;;;14.30;6.03;;;8.60;99.90;;;;;;4990962;28;20181;-60
2022/04/15 04:23:39;;;;;;;10.27;5.63;;;8.60;99.90;;;;;;4991026;28;20186;-60
2022/04/15 04:26:05;;;;;;;12.53;6.20;;;8.60;99.90;;;;;;4991009;28;20627;-60
2022/04/15 04:28:32;;;;;;;17.80;6.37;;;8.50;99.90;;;;;;4992375;28;20213;-60
2022/04/15 04:30:58;;;;;;;12.00;6.30;;;8.50;99.90;;;;;;4994664;28;20195;-60
2022/04/15 04:33:23;;;;;;;9.87;6.13;;;8.40;99.90;;;;;;4994690;28;20585;-60
2022/04/15 04:35:50;;;;;;;14.67;6.70;;;8.40;99.90;;;;;;4994539;28;20167;-61
2022/04/15 04:38:16;;;;;;;18.93;6.27;;;8.30;99.90;;;;;;4993167;28;20681;-60
2022/04/15 04:40:43;;;;;;;14.83;6.30;;;8.30;99.90;;;;;;4993291;28;20539;-61
2022/04/15 04:43:09;;;;;;;16.10;7.23;;;8.20;99.90;;;;;;4994504;28;20171;-60
2022/04/15 04:45:36;;;;;;;12.63;6.43;;;8.30;99.90;;;;;;4993235;28;20171;-61
2022/04/15 04:48:03;;;;;;;23.17;7.47;;;8.30;99.90;;;;;;4994413;28;20175;-58
2022/04/15 04:50:30;;;;;;;24.37;8.10;;;9.50;99.90;;;;;;4994226;28;20178;-61
2022/04/15 04:52:56;;;;;;;19.40;8.20;;;8.40;99.90;;;;;;4994504;28;20179;-58
2022/04/15 04:55:22;;;;;;;18.60;8.63;;;8.40;99.90;;;;;;4994284;28;20673;-58
2022/04/15 04:57:47;;;;;;;16.93;8.47;;;8.50;99.90;;;;;;4994135;28;20207;-59
2022/04/15 05:00:15;;;;;;;18.87;8.47;;;8.50;99.90;;;;;;4994157;28;20207;-59
2022/04/15 05:02:41;;;;;;;17.57;8.03;;;8.50;99.90;;;;;;4994642;28;20277;-60
2022/04/15 05:05:08;;;;;;;18.73;8.63;;;8.60;99.90;;;;;;4994011;28;20187;-59
2022/04/15 05:07:34;;;;;;;20.23;8.80;;;8.60;99.90;;;;;;4994234;28;20234;-59
2022/04/15 05:10:00;;;;;;;14.43;8.10;;;8.70;99.90;;;;;;4994298;28;20215;-59
2022/04/15 05:12:26;;;;;;;15.40;8.30;;;8.70;99.90;;;;;;4994635;28;20174;-59
2022/04/15 05:14:52;;;;;;;19.63;8.33;;;8.60;99.90;;;;;;4994117;28;20187;-60
2022/04/15 05:17:18;;;;;;;15.03;7.37;;;8.60;99.90;;;;;;4993875;28;20201;-60
2022/04/15 05:19:45;;;;;;;12.17;7.37;;;8.50;99.90;;;;;;4993835;28;20175;-59
2022/04/15 05:22:12;;;;;;;13.23;7.70;;;8.50;99.90;;;;;;4993717;28;20709;-60
2022/04/15 05:24:38;;;;;;;19.57;7.50;;;8.50;99.90;;;;;;4993843;28;20171;-59
2022/04/15 05:27:05;;;;;;;15.67;7.10;;;8.50;99.90;;;;;;4993897;28;20198;-59
2022/04/15 05:29:31;;;;;;;16.20;6.07;;;8.50;99.90;;;;;;4993573;28;20215;-59
2022/04/15 05:31:57;;;;;;;13.60;7.40;;;8.50;99.90;;;;;;4993410;28;20210;-59
2022/04/15 05:34:23;;;;;;;11.67;6.33;;;8.40;99.90;;;;;;4993552;28;20190;-59
2022/04/15 05:36:48;;;;;;;13.40;7.83;;;8.30;99.90;;;;;;4993484;28;20172;-60
2022/04/15 05:39:14;;;;;;;15.47;6.50;;;8.30;99.90;;;;;;4993218;28;20230;-59
2022/04/15 05:41:40;;;;;;;14.70;6.83;;;8.20;99.90;;;;;;4993295;28;20650;-60
2022/04/15 05:44:08;;;;;;;17.23;7.87;;;8.10;99.90;;;;;;4993419;28;20651;-59
2022/04/15 05:46:37;;;;;;;16.30;7.17;;;8.20;99.90;;;;;;4993242;28;20184;-59
2022/04/15 05:49:13;;;;;;;15.80;6.77;;;8.10;99.90;;;;;;4993367;28;20305;-59
2022/04/15 05:51:40;;;;;;;15.53;7.80;;;8.10;99.90;;;;;;4993193;28;20208;-59
2022/04/15 05:54:05;;;;;;;16.47;7.37;;;8.10;99.90;;;;;;4993313;28;20167;-59
2022/04/15 05:56:31;;;;;;;16.40;7.00;;;8.20;99.90;;;;;;4993143;28;20257;-60
2022/04/15 05:58:57;;;;;;;14.43;7.47;;;8.20;99.90;;;;;;4993056;28;20167;-60
2022/04/15 06:01:23;;;;;;;16.50;6.73;;;8.20;99.90;;;;;;4993021;28;20207;-60
2022/04/15 06:03:48;;;;;;;17.77;7.20;;;8.30;99.90;;;;;;4992911;28;20171;-60
2022/04/15 06:06:14;;;;;;;12.63;7.27;;;8.30;99.90;;;;;;4992983;28;20226;-60
2022/04/15 06:08:40;;;;;;;13.17;7.43;;;8.30;99.90;;;;;;4992891;28;20238;-60
2022/04/15 06:11:06;;;;;;;16.43;7.53;;;8.30;99.90;;;;;;4992809;28;20397;-60
2022/04/15 06:13:32;;;;;;;14.20;7.20;;;8.20;99.90;;;;;;4992854;28;20625;-60
2022/04/15 06:15:58;;;;;;;16.50;7.50;;;8.30;99.90;;;;;;4992939;28;20692;-60
2022/04/15 06:18:25;;;;;;;15.47;7.13;;;8.40;99.90;;;;;;4992880;28;20186;-60
2022/04/15 06:20:52;;;;;;;17.80;7.20;;;8.50;99.90;;;;;;4992772;28;20179;-60
2022/04/15 06:23:19;;;;;;;16.63;8.33;;;8.50;99.90;;;;;;4992669;28;20201;-60
2022/04/15 06:25:45;;;;;;;14.40;7.53;;;8.60;99.90;;;;;;4992635;28;20565;-60
2022/04/15 06:28:12;;;;;;;17.43;8.00;;;8.70;99.90;;;;;;4992457;28;20183;-60
2022/04/15 06:30:38;;;;;;;16.10;8.20;;;8.70;99.90;;;;;;4992573;28;20167;-60
2022/04/15 06:33:08;;;;;;;16.03;8.80;;;8.80;99.90;;;;;;4992631;28;20251;-60
2022/04/15 06:35:35;;;;;;;13.23;7.47;;;8.80;99.90;;;;;;4992530;28;20179;-60
2022/04/15 06:38:02;;;;;;;17.40;7.83;;;8.90;99.90;;;;;;4992271;28;20403;-60
2022/04/15 06:40:28;;;;;;;14.57;7.33;;;9.00;99.90;;;;;;4992249;28;20175;-60
2022/04/15 06:42:54;;;;;;;16.57;7.57;;;9.10;99.90;;;;;;4992248;28;20182;-60
2022/04/15 06:45:19;;;;;;;14.90;7.70;;;9.20;99.90;;;;;;4992186;28;20542;-60
2022/04/15 06:47:45;;;;;;;16.57;8.03;;;9.30;99.90;;;;;;4992114;28;20175;-60
2022/04/15 06:50:11;;;;;;;15.33;8.47;;;9.40;99.90;;;;;;4992118;28;20211;-60
2022/04/15 06:52:37;;;;;;;14.50;8.40;;;9.50;99.90;;;;;;4991808;28;20171;-60
2022/04/15 06:55:04;;;;;;;19.00;8.50;;;9.60;99.90;;;;;;4992223;28;20581;-60
2022/04/15 06:57:31;;;;;;;18.17;8.90;;;9.70;99.90;;;;;;4991994;28;20175;-60
2022/04/15 06:59:58;;;;;;;16.57;8.40;;;9.80;99.90;;;;;;4992171;28;20187;-60
2022/04/15 07:02:25;;;;;;;15.00;8.03;;;9.90;99.90;;;;;;4992042;28;20186;-60
2022/04/15 07:04:52;;;;;;;15.27;8.57;;;10.00;99.90;;;;;;4992093;28;20179;-60
2022/04/15 07:07:17;;;;;;;14.03;8.63;;;10.10;99.90;;;;;;4991904;28;20182;-60
2022/04/15 07:09:44;;;;;;;13.97;8.20;;;10.20;99.90;;;;;;4991802;28;20219;-59
2022/04/15 07:12:10;;;;;;;16.60;8.80;;;10.30;99.90;;;;;;4991806;28;20254;-59
2022/04/15 07:14:36;;;;;;;18.40;8.93;;;10.30;99.90;;;;;;4991810;28;20574;-59
2022/04/15 07:17:02;;;;;;;14.67;7.80;;;10.40;99.90;;;;;;4991788;28;20175;-59
2022/04/15 07:19:28;;;;;;;18.50;8.10;;;10.60;99.90;;;;;;4991820;28;20250;-59
2022/04/15 07:21:54;;;;;;;17.70;8.17;;;10.70;99.90;;;;;;4991684;28;20407;-59
2022/04/15 07:24:21;;;;;;;15.23;8.53;;;10.80;99.90;;;;;;4991584;28;20717;-59
2022/04/15 07:26:47;;;;;;;14.67;7.57;;;10.90;99.90;;;;;;4991642;28;20187;-59
2022/04/15 07:29:13;;;;;;;11.90;7.50;;;11.10;99.90;;;;;;4991533;28;20257;-59
2022/04/15 07:31:40;;;;;;;14.97;7.40;;;11.30;99.90;;;;;;4991486;28;20172;-60
2022/04/15 07:34:06;;;;;;;12.60;7.27;;;11.40;99.90;;;;;;4991544;28;20171;-59
2022/04/15 07:39:03;;;;;;;12.97;6.60;;;11.70;99.90;;;;;;4991398;28;20225;-60
2022/04/15 07:41:29;;;;;;;15.83;7.07;;;11.80;99.90;;;;;;4991418;28;20199;-59
2022/04/15 07:43:55;;;;;;;12.47;6.30;;;11.90;99.90;;;;;;4991545;28;20179;-59
2022/04/15 07:46:21;;;;;;;11.27;5.80;;;12.00;99.90;;;;;;4991308;28;20164;-59
2022/04/15 07:48:46;;;;;;;12.00;5.87;;;12.10;99.90;;;;;;4991404;28;20241;-59
2022/04/15 07:51:12;;;;;;;12.73;6.67;;;12.20;99.90;;;;;;4991433;28;20674;-59
2022/04/15 07:53:38;;;;;;;11.67;6.60;;;12.40;99.90;;;;;;4991411;28;20190;-60
2022/04/15 07:56:04;;;;;;;11.03;5.87;;;12.50;99.90;;;;;;4991291;28;20207;-61
2022/04/15 07:58:31;;;;;;;12.97;6.23;;;12.60;99.90;;;;;;4991457;28;20175;-61
2022/04/15 08:01:00;;;;;;;13.50;6.10;;;12.70;99.90;;;;;;4991345;28;20183;-61
2022/04/15 08:03:28;;;;;;;10.20;5.30;;;12.90;99.90;;;;;;4992699;28;20175;-60
2022/04/15 08:05:55;;;;;;;15.07;6.10;;;13.10;99.90;;;;;;4995298;28;20250;-61
2022/04/15 08:08:21;;;;;;;11.67;6.07;;;13.30;99.90;;;;;;4995086;28;20175;-60
2022/04/15 08:10:53;;;;;;;11.07;5.50;;;13.70;99.90;;;;;;4995179;28;20187;-60
2022/04/15 08:13:19;;;;;;;9.43;5.28;;;15.80;99.90;;;;;;4995066;28;20171;-60
2022/04/15 08:15:50;;;;;;;12.68;4.63;;;18.00;99.90;;;;;;4994957;28;20630;-60
2022/04/15 08:18:16;;;;;;;10.07;4.82;;;19.50;99.90;;;;;;4994954;28;20547;-59
2022/04/15 08:20:42;;;;;;;11.57;4.88;;;20.30;99.90;;;;;;4994888;28;20175;-60
2022/04/15 08:23:09;;;;;;;8.95;4.75;;;21.10;99.90;;;;;;4995292;28;20187;-61
2022/04/15 08:25:36;;;;;;;8.35;3.45;;;22.30;99.90;;;;;;4994793;28;20218;-61
2022/04/15 08:28:04;;;;;;;11.88;4.00;;;23.30;99.90;;;;;;4994783;28;20167;-60
2022/04/15 08:30:33;;;;;;;6.30;3.13;;;23.60;99.90;;;;;;4994605;28;20261;-61
2022/04/15 08:32:59;;;;;;;4.80;2.88;;;23.70;99.90;;;;;;4994583;28;20167;-60
2022/04/15 08:35:25;;;;;;;5.30;2.70;;;22.40;99.90;;;;;;4994443;28;20174;-60
2022/04/15 08:37:50;;;;;;;5.05;2.47;;;21.30;99.90;;;;;;4994238;28;20586;-60
2022/04/15 08:40:16;;;;;;;4.82;2.80;;;20.70;99.90;;;;;;4994609;28;20195;-59
2022/04/15 08:42:43;;;;;;;6.85;3.47;;;19.90;99.90;;;;;;4994425;28;20254;-59
2022/04/15 08:45:13;;;;;;;7.85;2.80;;;19.00;99.90;;;;;;4994515;28;20176;-59
2022/04/15 08:47:39;;;;;;;5.95;2.47;;;19.50;99.90;;;;;;4994334;28;20661;-59
2022/04/15 08:50:07;;;;;;;6.20;2.65;;;19.60;99.90;;;;;;4994294;28;20294;-59
2022/04/15 08:52:33;;;;;;;10.90;3.55;;;19.50;99.90;;;;;;4994530;28;20217;-59
2022/04/15 08:54:59;;;;;;;7.63;2.75;;;18.90;99.90;;;;;;4994163;28;20207;-59
2022/04/15 08:57:25;;;;;;;5.40;2.10;;;18.30;99.90;;;;;;4994209;28;20206;-59
2022/04/15 08:59:53;;;;;;;7.95;2.42;;;18.10;99.90;;;;;;4994049;28;20209;-59
2022/04/15 09:02:37;;;;;;;9.80;2.13;;;18.10;99.90;;;;;;4994054;28;20179;-59
2022/04/15 09:05:04;;;;;;;3.63;1.80;;;18.60;99.90;;;;;;4994222;28;20179;-59
2022/04/15 09:07:31;;;;;;;3.70;1.83;;;21.00;99.90;;;;;;4994159;28;20250;-60
2022/04/15 09:09:59;;;;;;;5.50;1.63;;;22.90;99.90;;;;;;4994073;28;20221;-61
2022/04/15 09:12:27;;;;;;;3.85;1.65;;;24.10;99.90;;;;;;4993971;28;20189;-60
2022/04/15 09:15:00;;;;;;;3.40;1.33;;;23.50;99.90;;;;;;4993412;28;20187;-61
2022/04/15 09:17:29;;;;;;;4.13;1.60;;;23.20;99.90;;;;;;4994168;28;20676;-61
2022/04/15 09:19:58;;;;;;;4.03;1.48;;;22.50;99.90;;;;;;4993835;28;20293;-60
2022/04/15 09:22:24;;;;;;;2.90;1.52;;;23.20;99.90;;;;;;4993801;28;20202;-60
2022/04/15 09:24:51;;;;;;;3.45;1.48;;;24.50;99.90;;;;;;4993653;28;20199;-60
2022/04/15 09:27:19;;;;;;;4.25;1.38;;;25.10;99.90;;;;;;4993533;28;20248;-60
2022/04/15 09:29:46;;;;;;;2.63;0.90;;;25.40;99.90;;;;;;4993710;28;20172;-60
2022/04/15 09:32:16;;;;;;;3.45;0.98;;;26.10;99.90;;;;;;4993784;28;20179;-60
2022/04/15 09:34:58;;;;;;;2.65;0.80;;;24.80;99.90;;;;;;4992214;28;20237;-60
2022/04/15 09:37:27;;;;;;;2.03;0.68;;;24.30;99.90;;;;;;4993347;28;20183;-59
2022/04/15 09:40:18;;;;;;;5.65;1.05;;;23.60;99.90;;;;;;4991755;28;20278;-60
2022/04/15 09:42:49;;;;;;;4.35;0.88;;;24.30;99.90;;;;;;4993303;28;20183;-59
2022/04/15 09:45:25;;;;;;;3.03;0.70;;;23.20;99.90;;;;;;4993266;28;20193;-59
2022/04/15 09:47:53;;;;;;;3.10;1.00;;;22.90;99.90;;;;;;4993298;28;20544;-59
2022/04/15 09:50:42;;;;;;;5.18;1.05;;;23.10;99.90;;;;;;4993274;28;20195;-59
2022/04/15 09:53:15;;;;;;;4.80;1.05;;;22.90;99.90;;;;;;4993259;28;20559;-59
2022/04/15 09:55:43;;;;;;;2.88;1.25;;;22.90;99.90;;;;;;4993158;28;20173;-59
2022/04/15 09:58:11;;;;;;;4.82;1.30;;;23.10;99.90;;;;;;4993098;28;20232;-59
2022/04/15 10:00:39;;;;;;;4.57;1.30;;;22.60;99.90;;;;;;4993018;28;20674;-60
2022/04/15 10:03:11;;;;;;;2.33;1.02;;;22.70;99.90;;;;;;4993076;28;20786;-60
2022/04/15 10:05:38;;;;;;;2.65;1.00;;;22.80;99.90;;;;;;4992870;28;20211;-60
2022/04/15 10:08:05;;;;;;;2.90;0.93;;;22.80;99.90;;;;;;4992944;28;20265;-60
2022/04/15 10:10:32;;;;;;;3.25;1.08;;;22.40;99.90;;;;;;4992797;28;20316;-59
2022/04/15 10:13:00;;;;;;;4.72;1.45;;;23.00;99.90;;;;;;4992821;28;20171;-60
2022/04/15 10:15:27;;;;;;;4.10;1.15;;;22.80;99.90;;;;;;4992763;28;20159;-60
2022/04/15 10:17:53;;;;;;;5.88;1.10;;;23.50;99.90;;;;;;4992653;28;20190;-60
2022/04/15 10:20:18;;;;;;;2.95;1.10;;;23.60;99.90;;;;;;4992499;28;20203;-60
2022/04/15 10:22:46;;;;;;;5.10;1.60;;;24.00;99.90;;;;;;4992802;28;20286;-60
2022/04/15 10:25:11;;;;;;;3.78;1.30;;;24.10;99.90;;;;;;4992210;28;20163;-60
2022/04/15 10:27:38;;;;;;;5.47;1.33;;;23.90;99.90;;;;;;4992128;28;20163;-60
2022/04/15 10:30:04;;;;;;;3.72;1.10;;;23.50;99.90;;;;;;4992496;28;20175;-60
2022/04/15 10:32:47;;;;;;;3.78;1.20;;;24.10;99.90;;;;;;4992438;28;20195;-60
2022/04/15 10:35:22;;;;;;;2.40;1.10;;;24.20;99.90;;;;;;4992268;28;20179;-60
2022/04/15 10:38:11;;;;;;;6.53;1.52;;;21.90;99.90;;;;;;4992328;28;20178;-60
2022/04/15 10:40:43;;;;;;;3.03;1.27;;;22.80;99.90;;;;;;4982151;28;20290;-59
2022/04/15 10:43:27;;;;;;;4.65;1.40;;;22.70;99.90;;;;;;4992270;28;20167;-60
2022/04/15 10:46:12;;;;;;;7.15;1.80;;;23.80;99.90;;;;;;4992400;28;20245;-60
2022/04/15 10:48:40;;;;;;;3.17;1.60;;;23.90;99.90;;;;;;4992053;28;20234;-59
2022/04/15 10:51:27;;;;;;;4.75;1.90;;;24.70;99.90;;;;;;4991902;28;20171;-60
2022/04/15 10:53:53;;;;;;;5.50;2.08;;;23.80;99.90;;;;;;4991929;28;20202;-60
2022/04/15 10:56:20;;;;;;;4.72;2.30;;;24.30;99.90;;;;;;4991958;28;20218;-60
2022/04/15 11:02:04;;;;;;;3.55;2.30;;;24.20;99.90;;;;;;4991875;28;20181;-60
2022/04/15 11:04:36;;;;;;;5.93;2.42;;;23.60;99.90;;;;;;4990599;28;20175;-60
2022/04/15 11:07:15;;;;;;;5.15;2.53;;;24.40;99.90;;;;;;4991740;28;20176;-60
2022/04/15 11:09:40;;;;;;;6.57;2.47;;;24.80;99.90;;;;;;4990411;28;20261;-60
2022/04/15 11:12:06;;;;;;;3.17;2.13;;;25.20;99.90;;;;;;4991982;28;20199;-60
2022/04/15 11:14:34;;;;;;;5.25;2.42;;;26.40;99.90;;;;;;4990475;28;20670;-60
2022/04/15 11:17:00;;;;;;;4.95;2.90;;;25.20;99.90;;;;;;4991710;28;20183;-60
2022/04/15 11:19:27;;;;;;;8.07;2.50;;;24.90;99.90;;;;;;4991586;28;20855;-60
2022/04/15 11:21:54;;;;;;;4.40;2.45;;;24.70;99.90;;;;;;4991572;28;20167;-60
2022/04/15 11:24:32;;;;;;;6.35;2.53;;;24.90;99.90;;;;;;4991551;28;20211;-60
2022/04/15 11:27:01;;;;;;;5.97;2.17;;;25.20;99.90;;;;;;4991541;28;20185;-60
2022/04/15 11:29:34;;;;;;;5.43;2.30;;;25.40;99.90;;;;;;4991363;28;20175;-60
2022/04/15 11:32:05;;;;;;;5.75;2.40;;;25.50;99.90;;;;;;4991422;28;20225;-60
2022/04/15 11:34:31;;;;;;;5.57;2.50;;;26.40;99.90;;;;;;4991437;28;20171;-60
2022/04/15 11:37:07;;;;;;;5.55;2.45;;;26.90;99.90;;;;;;4991558;28;20186;-60
2022/04/15 11:39:35;;;;;;;4.50;2.20;;;26.40;99.90;;;;;;4991251;28;20445;-60
2022/04/15 11:42:06;;;;;;;6.38;2.50;;;26.40;99.90;;;;;;4991468;28;20175;-60
2022/04/15 11:44:32;;;;;;;4.05;2.50;;;25.20;99.90;;;;;;4991357;28;20167;-60
2022/04/15 11:49:48;;;;;;;6.85;2.40;;;25.20;99.90;;;;;;4991631;28;20234;-60
2022/04/15 11:52:27;;;;;;;4.50;2.05;;;25.30;99.90;;;;;;4991423;28;20167;-60
2022/04/15 11:54:55;;;;;;;3.33;1.88;;;25.00;99.90;;;;;;4991407;28;20170;-60
2022/04/15 11:57:21;;;;;;;3.70;2.13;;;24.40;99.90;;;;;;4991307;28;20167;-60
2022/04/15 11:59:48;;;;;;;4.22;2.08;;;24.30;99.90;;;;;;4991067;28;20701;-60
2022/04/15 12:02:17;;;;;;;4.85;2.05;;;24.90;99.90;;;;;;4991151;28;20222;-60
2022/04/15 12:04:56;;;;;;;4.63;2.25;;;24.60;99.90;;;;;;4991326;28;20229;-60
2022/04/15 12:07:23;;;;;;;6.97;2.30;;;24.70;99.90;;;;;;4991111;28;20626;-61
2022/04/15 12:09:50;;;;;;;4.50;2.00;;;24.70;99.90;;;;;;4991008;28;20183;-61
2022/04/15 12:12:17;;;;;;;4.70;1.92;;;24.90;99.90;;;;;;4991065;28;20661;-60
2022/04/15 12:14:43;;;;;;;4.35;2.00;;;25.60;99.90;;;;;;4991106;28;20278;-60
2022/04/15 12:17:11;;;;;;;4.00;1.85;;;26.10;99.90;;;;;;4991069;28;20310;-60
2022/04/15 12:19:37;;;;;;;6.50;2.45;;;26.80;99.90;;;;;;4991158;28;20226;-60
2022/04/15 12:22:05;;;;;;;4.47;2.25;;;27.10;99.90;;;;;;4990942;28;20171;-60
2022/04/15 12:24:31;;;;;;;4.15;2.28;;;27.50;99.90;;;;;;4990962;28;20190;-61
2022/04/15 12:27:00;;;;;;;10.65;2.67;;;27.40;99.90;;;;;;4990908;28;20175;-61
2022/04/15 12:32:17;;;;;;;5.35;2.20;;;27.00;99.90;;;;;;4991001;28;20179;-61
2022/04/15 12:34:47;;;;;;;5.05;2.58;;;27.30;99.90;;;;;;4990947;28;20591;-60
2022/04/15 12:37:34;;;;;;;5.82;2.78;;;27.70;99.90;;;;;;4990814;28;20191;-61
2022/04/15 12:40:19;;;;;;;5.82;2.60;;;26.50;99.90;;;;;;4990790;28;20754;-60
2022/04/15 12:42:48;;;;;;;5.25;2.90;;;26.50;99.90;;;;;;4990772;28;20179;-60
2022/04/15 12:45:21;;;;;;;5.63;2.65;;;26.50;99.90;;;;;;4990824;28;20227;-61
2022/04/15 12:48:07;;;;;;;6.75;3.08;;;25.60;99.90;;;;;;4990850;28;20217;-58
2022/04/15 12:50:35;;;;;;;9.30;3.67;;;23.70;99.90;;;;;;4993700;28;20658;-59
2022/04/15 12:53:13;;;;;;;9.35;4.43;;;24.20;99.90;;;;;;4992964;28;20183;-59
2022/04/15 12:55:39;;;;;;;6.75;3.85;;;23.70;99.90;;;;;;4994216;28;20222;-60
2022/04/15 12:58:27;;;;;;;5.03;3.13;;;23.50;99.90;;;;;;4993963;28;20175;-59
2022/04/15 13:00:55;;;;;;;6.72;2.85;;;23.90;99.90;;;;;;4993931;28;20589;-59